createdAt,value
2024-05-09T00:02:02.244Z,9.69
2024-05-09T00:05:05.042Z,9.78
2024-05-09T00:08:08.832Z,9.75
2024-05-09T00:11:14.408Z,9.71
2024-05-09T00:14:16.934Z,9.65
2024-05-09T00:17:19.557Z,9.59
2024-05-09T00:20:28.135Z,9.59
2024-05-09T00:23:36.011Z,9.63
2024-05-09T00:26:38.647Z,9.63
2024-05-09T00:29:41.101Z,9.61
2024-05-09T00:32:43.712Z,9.55
2024-05-09T00:35:46.287Z,9.54
2024-05-09T00:38:48.753Z,9.57
2024-05-09T00:41:51.204Z,9.50
2024-05-09T00:44:53.646Z,9.40
2024-05-09T00:47:56.501Z,9.35
2024-05-09T00:50:59.371Z,9.40
2024-05-09T00:54:02.535Z,9.46
2024-05-09T00:57:05.616Z,9.43
2024-05-09T01:00:18.449Z,9.42
2024-05-09T01:03:29.492Z,9.44
2024-05-09T01:06:32.133Z,9.40
2024-05-09T01:09:34.570Z,9.47
2024-05-09T01:12:37.104Z,9.42
2024-05-09T01:15:39.577Z,9.37
2024-05-09T01:18:43.176Z,9.36
2024-05-09T01:21:45.739Z,9.28
2024-05-09T01:24:48.246Z,9.33
2024-05-09T01:27:50.691Z,9.30
2024-05-09T01:30:53.144Z,9.19
2024-05-09T01:33:55.775Z,9.24
2024-05-09T01:36:58.399Z,9.23
2024-05-09T01:40:00.874Z,9.20
2024-05-09T01:43:03.323Z,9.15
2024-05-09T01:46:05.800Z,9.20
2024-05-09T01:49:08.402Z,9.15
2024-05-09T01:52:10.894Z,9.14
2024-05-09T01:55:13.355Z,9.12
2024-05-09T01:58:16.478Z,9.13
2024-05-09T02:01:18.962Z,9.05
2024-05-09T02:04:21.607Z,9.02
2024-05-09T02:07:24.201Z,9.05
2024-05-09T02:10:32.310Z,9.03
2024-05-09T02:13:35.675Z,9.05
2024-05-09T02:16:38.148Z,9.00
2024-05-09T02:19:40.666Z,9.07
2024-05-09T02:22:43.230Z,9.13
2024-05-09T02:25:45.769Z,9.11
2024-05-09T02:28:48.313Z,9.10
2024-05-09T02:31:50.859Z,9.06
2024-05-09T02:34:53.408Z,9.02
2024-05-09T02:37:55.957Z,8.94
2024-05-09T02:40:58.538Z,8.92
2024-05-09T02:44:01.037Z,8.89
2024-05-09T02:47:03.558Z,8.87
2024-05-09T02:50:08.160Z,8.89
2024-05-09T02:53:14.752Z,8.88
2024-05-09T02:56:17.349Z,8.88
2024-05-09T02:59:19.850Z,8.94
2024-05-09T03:02:22.529Z,8.92
2024-05-09T03:05:25.609Z,8.90
2024-05-09T03:08:28.156Z,8.84
2024-05-09T03:11:30.747Z,8.82
2024-05-09T03:14:33.240Z,8.85
2024-05-09T03:17:35.887Z,8.84
2024-05-09T03:20:39.144Z,8.82
2024-05-09T03:23:43.034Z,8.83
2024-05-09T03:26:45.765Z,8.82
2024-05-09T03:29:48.216Z,8.84
2024-05-09T03:32:50.872Z,8.86
2024-05-09T03:35:53.386Z,8.91
2024-05-09T03:38:55.836Z,8.98
2024-05-09T03:41:58.284Z,8.88
2024-05-09T03:45:00.890Z,8.84
2024-05-09T03:48:03.531Z,8.94
2024-05-09T03:51:06.078Z,8.99
2024-05-09T03:54:08.558Z,9.05
2024-05-09T03:57:11.036Z,9.01
2024-05-09T04:00:18.271Z,9.18
2024-05-09T04:03:28.791Z,9.36
2024-05-09T04:06:31.385Z,9.82
2024-05-09T04:09:33.786Z,9.76
2024-05-09T04:12:36.547Z,9.86
2024-05-09T04:15:39.548Z,9.92
2024-05-09T04:18:42.036Z,10.18
2024-05-09T04:21:44.552Z,10.70
2024-05-09T04:24:47.666Z,11.43
2024-05-09T04:27:50.166Z,12.14
2024-05-09T04:30:52.589Z,12.64
2024-05-09T04:33:55.188Z,13.14
2024-05-09T04:36:57.721Z,12.95
2024-05-09T04:40:00.423Z,12.71
2024-05-09T04:43:02.860Z,12.60
2024-05-09T04:46:05.693Z,11.82
2024-05-09T04:49:08.490Z,11.00
2024-05-09T04:52:11.105Z,10.50
2024-05-09T04:55:13.530Z,10.58
2024-05-09T04:58:16.007Z,10.63
2024-05-09T05:01:18.514Z,10.90
2024-05-09T05:04:21.037Z,10.88
2024-05-09T05:07:23.503Z,11.00
2024-05-09T05:10:33.553Z,11.17
2024-05-09T05:13:41.455Z,11.10
2024-05-09T05:16:44.266Z,11.35
2024-05-09T05:19:46.856Z,11.29
2024-05-09T05:22:49.405Z,11.58
2024-05-09T05:25:53.462Z,11.37
2024-05-09T05:28:56.577Z,12.75
2024-05-09T05:31:59.210Z,13.72
2024-05-09T05:35:01.828Z,14.83
2024-05-09T05:38:05.058Z,14.87
2024-05-09T05:41:07.666Z,15.69
2024-05-09T05:44:14.796Z,16.20
2024-05-09T05:47:18.070Z,16.33
2024-05-09T05:50:27.767Z,15.63
2024-05-09T05:53:37.332Z,16.05
2024-05-09T05:56:39.950Z,15.55
2024-05-09T05:59:42.464Z,15.72
2024-05-09T06:02:45.168Z,15.88
2024-05-09T06:05:47.775Z,16.57
2024-05-09T06:08:50.332Z,16.42
2024-05-09T06:11:52.977Z,17.24
2024-05-09T06:14:55.559Z,17.48
2024-05-09T06:17:58.331Z,17.75
2024-05-09T06:21:01.242Z,17.99
2024-05-09T06:24:06.524Z,17.62
2024-05-09T06:27:09.386Z,17.62
2024-05-09T06:30:24.854Z,17.03
2024-05-09T06:33:32.169Z,16.65
2024-05-09T06:36:34.784Z,16.24
2024-05-09T06:39:37.298Z,18.06
2024-05-09T06:42:39.747Z,18.99
2024-05-09T06:45:42.416Z,19.62
2024-05-09T06:49:20.383Z,19.44
2024-05-09T06:52:22.962Z,19.28
2024-05-09T06:55:25.518Z,19.49
2024-05-09T06:58:28.021Z,18.77
2024-05-09T07:01:30.533Z,18.14
2024-05-09T07:04:33.190Z,17.33
2024-05-09T07:07:36.365Z,17.71
2024-05-09T07:10:38.949Z,19.23
2024-05-09T07:13:41.505Z,17.87
2024-05-09T07:16:44.066Z,18.09
2024-05-09T07:19:46.772Z,18.78
2024-05-09T07:22:49.453Z,19.05
2024-05-09T07:25:52.046Z,20.10
2024-05-09T07:28:56.186Z,21.01
2024-05-09T07:32:01.075Z,19.11
2024-05-09T07:35:03.696Z,20.24
2024-05-09T07:38:06.253Z,20.97
2024-05-09T07:41:08.906Z,21.77
2024-05-09T07:44:11.532Z,21.74
2024-05-09T07:48:28.284Z,20.24
2024-05-09T07:52:32.986Z,21.08
2024-05-09T07:54:00.988Z,20.60
2024-05-09T07:57:04.458Z,20.75
2024-05-09T08:00:11.929Z,19.93
2024-05-09T08:03:31.533Z,20.52
2024-05-09T08:06:34.146Z,21.01
2024-05-09T08:09:38.673Z,22.08
2024-05-09T08:12:41.313Z,21.55
2024-05-09T08:15:43.983Z,22.56
2024-05-09T08:18:46.697Z,22.93
2024-05-09T08:21:49.579Z,23.26
2024-05-09T08:24:52.189Z,22.77
2024-05-09T08:27:54.859Z,22.58
2024-05-09T08:30:57.497Z,23.15
2024-05-09T08:34:00.300Z,22.83
2024-05-09T08:37:10.168Z,22.50
2024-05-09T08:40:24.192Z,23.46
2024-05-09T08:43:33.923Z,22.25
2024-05-09T08:46:38.020Z,20.96
2024-05-09T08:49:41.697Z,22.18
2024-05-09T08:52:45.092Z,21.16
2024-05-09T08:55:47.953Z,20.18
2024-05-09T08:58:56.641Z,21.20
2024-05-09T09:02:00.241Z,22.42
2024-05-09T09:05:17.057Z,23.10
2024-05-09T09:08:20.892Z,20.84
2024-05-09T09:11:23.708Z,21.85
2024-05-09T09:14:26.248Z,21.09
2024-05-09T09:17:28.855Z,22.81
2024-05-09T09:20:36.432Z,23.81
2024-05-09T09:23:40.301Z,24.13
2024-05-09T09:26:45.775Z,23.78
2024-05-09T09:29:49.448Z,24.36
2024-05-09T09:32:52.054Z,24.12
2024-05-09T09:35:55.257Z,24.35
2024-05-09T09:38:58.749Z,23.93
2024-05-09T09:42:04.940Z,23.88
2024-05-09T09:45:07.901Z,23.30
2024-05-09T09:48:15.325Z,23.63
2024-05-09T09:51:20.726Z,25.18
2024-05-09T09:54:25.726Z,24.27
2024-05-09T09:57:29.628Z,24.99
2024-05-09T10:00:36.585Z,23.20
2024-05-09T10:03:45.041Z,23.61
2024-05-09T10:06:53.394Z,24.59
2024-05-09T10:09:58.648Z,24.91
2024-05-09T10:13:06.825Z,25.00
2024-05-09T10:16:11.589Z,23.85
2024-05-09T10:19:30.299Z,24.56
2024-05-09T10:22:37.111Z,24.62
2024-05-09T10:25:44.449Z,24.00
2024-05-09T10:28:51.922Z,24.75
2024-05-09T10:31:54.791Z,24.48
2024-05-09T10:35:14.967Z,22.38
2024-05-09T10:38:23.218Z,23.94
2024-05-09T10:41:31.118Z,24.40
2024-05-09T10:44:38.586Z,23.68
2024-05-09T10:47:42.284Z,23.97
2024-05-09T10:50:51.495Z,24.20
2024-05-09T10:53:59.035Z,24.09
2024-05-09T10:57:04.245Z,23.52
2024-05-09T11:00:15.780Z,23.40
2024-05-09T11:03:32.282Z,24.01
2024-05-09T11:06:39.102Z,24.04
2024-05-09T11:09:45.891Z,23.35
2024-05-09T11:12:56.129Z,21.12
2024-05-09T11:16:25.408Z,22.83
2024-05-09T11:19:38.443Z,23.99
2024-05-09T11:22:41.308Z,22.85
2024-05-09T11:25:51.203Z,23.04
2024-05-09T11:28:54.182Z,23.54
2024-05-09T11:32:01.612Z,24.22
2024-05-09T11:35:04.279Z,22.36
2024-05-09T11:38:07.207Z,23.00
2024-05-09T11:41:16.830Z,22.57
2024-05-09T11:44:19.489Z,23.18
2024-05-09T11:47:24.735Z,22.83
2024-05-09T11:50:32.802Z,22.66
2024-05-09T11:53:38.280Z,22.22
2024-05-09T11:56:40.855Z,23.55
2024-05-09T11:59:43.441Z,22.36
2024-05-09T12:02:46.095Z,22.28
2024-05-09T12:05:48.808Z,22.70
2024-05-09T12:08:51.699Z,22.60
2024-05-09T12:11:54.338Z,22.46
2024-05-09T12:14:56.894Z,22.62
2024-05-09T12:18:02.738Z,22.35
2024-05-09T12:21:06.779Z,21.27
2024-05-09T12:24:12.553Z,22.06
2024-05-09T12:27:16.570Z,22.15
2024-05-09T12:30:32.098Z,21.49
2024-05-09T12:33:39.755Z,21.79
2024-05-09T12:36:45.770Z,21.51
2024-05-09T12:39:48.386Z,20.70
2024-05-09T12:42:51.114Z,20.71
2024-05-09T12:45:53.763Z,20.95
2024-05-09T12:48:57.145Z,20.87
2024-05-09T12:52:00.530Z,20.78
2024-05-09T12:55:04.076Z,21.36
2024-05-09T12:58:06.981Z,20.95
2024-05-09T13:01:09.599Z,20.92
2024-05-09T13:04:12.371Z,20.39
2024-05-09T13:07:15.815Z,19.84
2024-05-09T13:10:28.677Z,20.01
2024-05-09T13:13:34.826Z,20.00
2024-05-09T13:16:37.507Z,19.67
2024-05-09T13:19:40.091Z,19.69
2024-05-09T13:22:44.472Z,19.58
2024-05-09T13:25:46.987Z,19.88
2024-05-09T13:28:49.461Z,19.02
2024-05-09T13:31:51.927Z,19.16
2024-05-09T13:34:54.408Z,19.56
2024-05-09T13:37:56.911Z,19.51
2024-05-09T13:40:59.443Z,19.44
2024-05-09T13:44:01.987Z,19.43
2024-05-09T13:47:04.710Z,19.34
2024-05-09T13:50:11.485Z,19.46
2024-05-09T13:53:16.887Z,19.64
2024-05-09T13:56:19.327Z,19.83
2024-05-09T13:59:21.832Z,19.39
2024-05-09T14:02:24.463Z,19.35
2024-05-09T14:05:27.169Z,18.61
2024-05-09T14:08:29.776Z,19.15
2024-05-09T14:11:32.348Z,19.10
2024-05-09T14:14:34.800Z,18.97
2024-05-09T14:17:37.989Z,18.52
2024-05-09T14:20:41.089Z,18.90
2024-05-09T14:23:44.264Z,18.71
2024-05-09T14:26:47.388Z,18.61
2024-05-09T14:29:49.948Z,18.75
2024-05-09T14:32:52.517Z,18.61
2024-05-09T14:35:55.217Z,18.76
2024-05-09T14:38:57.852Z,18.77
2024-05-09T14:42:01.083Z,18.45
2024-05-09T14:45:03.698Z,18.35
2024-05-09T14:48:07.467Z,18.35
2024-05-09T14:51:10.081Z,18.23
2024-05-09T14:54:12.678Z,18.30
2024-05-09T14:57:15.703Z,18.37
2024-05-09T15:00:26.137Z,18.09
2024-05-09T15:03:32.254Z,18.29
2024-05-09T15:06:35.246Z,18.35
2024-05-09T15:09:38.026Z,18.28
2024-05-09T15:12:40.663Z,18.17
2024-05-09T15:15:43.336Z,18.18
2024-05-09T15:18:46.060Z,18.17
2024-05-09T15:21:48.942Z,18.16
2024-05-09T15:24:53.786Z,18.00
2024-05-09T15:27:56.704Z,17.93
2024-05-09T15:31:00.466Z,18.03
2024-05-09T15:34:03.207Z,17.91
2024-05-09T15:37:05.870Z,17.87
2024-05-09T15:40:15.392Z,17.75
2024-05-09T15:43:26.909Z,17.74
2024-05-09T15:46:37.144Z,17.40
2024-05-09T15:49:39.956Z,17.50
2024-05-09T15:52:42.514Z,17.38
2024-05-09T15:55:45.057Z,17.37
2024-05-09T15:58:47.557Z,17.28
2024-05-09T16:01:50.164Z,17.22
2024-05-09T16:04:53.491Z,17.28
2024-05-09T16:07:56.689Z,17.12
2024-05-09T16:10:59.397Z,17.11
2024-05-09T16:14:01.962Z,17.16
2024-05-09T16:17:05.093Z,17.15
2024-05-09T16:20:12.255Z,17.18
2024-05-09T16:23:17.863Z,17.03
2024-05-09T16:26:20.393Z,16.91
2024-05-09T16:29:22.880Z,17.11
2024-05-09T16:32:25.466Z,16.97
2024-05-09T16:35:28.085Z,16.89
2024-05-09T16:38:30.634Z,16.82
2024-05-09T16:41:33.264Z,16.68
2024-05-09T16:44:35.895Z,16.67
2024-05-09T16:47:38.750Z,16.67
2024-05-09T16:50:41.432Z,16.65
2024-05-09T16:53:44.007Z,16.44
2024-05-09T16:56:46.502Z,16.33
2024-05-09T16:59:49.003Z,16.14
2024-05-09T17:02:54.297Z,16.28
2024-05-09T17:05:56.917Z,16.26
2024-05-09T17:09:08.103Z,16.15
2024-05-09T17:12:14.038Z,16.12
2024-05-09T17:15:17.523Z,15.94
2024-05-09T17:18:20.112Z,15.71
2024-05-09T17:21:22.904Z,15.79
2024-05-09T17:24:26.651Z,15.57
2024-05-09T17:27:32.152Z,15.43
2024-05-09T17:30:37.217Z,15.45
2024-05-09T17:33:42.879Z,15.35
2024-05-09T17:36:45.565Z,15.35
2024-05-09T17:39:48.164Z,15.34
2024-05-09T17:42:50.801Z,15.22
2024-05-09T17:45:53.700Z,15.15
2024-05-09T17:48:59.594Z,15.01
2024-05-09T17:52:03.511Z,14.84
2024-05-09T17:55:08.175Z,14.78
2024-05-09T17:58:12.344Z,14.68
2024-05-09T18:01:15.025Z,14.67
2024-05-09T18:04:18.463Z,14.60
2024-05-09T18:07:21.687Z,14.59
2024-05-09T18:10:32.800Z,14.53
2024-05-09T18:13:39.550Z,14.37
2024-05-09T18:16:42.799Z,14.38
2024-05-09T18:19:45.433Z,14.23
2024-05-09T18:22:48.537Z,14.25
2024-05-09T18:25:54.604Z,14.16
2024-05-09T18:28:58.067Z,14.13
2024-05-09T18:32:00.601Z,14.16
2024-05-09T18:35:03.806Z,14.21
2024-05-09T18:38:06.802Z,14.21
2024-05-09T18:41:09.899Z,14.14
2024-05-09T18:44:13.062Z,14.11
2024-05-09T18:47:19.389Z,14.01
2024-05-09T18:50:31.931Z,13.85
2024-05-09T18:53:38.776Z,13.88
2024-05-09T18:56:41.547Z,13.89
2024-05-09T18:59:44.256Z,13.83
2024-05-09T19:02:47.474Z,13.77
2024-05-09T19:05:50.688Z,13.84
2024-05-09T19:08:53.349Z,13.69
2024-05-09T19:11:56.295Z,13.66
2024-05-09T19:14:59.692Z,13.65
2024-05-09T19:18:02.794Z,13.59
2024-05-09T19:21:08.682Z,13.55
2024-05-09T19:24:12.219Z,13.61
2024-05-09T19:27:15.021Z,13.64
2024-05-09T19:30:28.988Z,13.58
2024-05-09T19:33:39.153Z,13.60
2024-05-09T19:36:42.197Z,13.57
2024-05-09T19:39:45.248Z,13.45
2024-05-09T19:42:48.138Z,13.48
2024-05-09T19:45:50.919Z,13.38
2024-05-09T19:48:53.772Z,13.38
2024-05-09T19:51:56.814Z,13.30
2024-05-09T19:54:59.385Z,13.21
2024-05-09T19:58:07.148Z,13.26
2024-05-09T20:01:11.453Z,13.10
2024-05-09T20:04:14.223Z,13.11
2024-05-09T20:07:16.830Z,13.17
2024-05-09T20:10:24.131Z,13.07
2024-05-09T20:13:32.561Z,13.14
2024-05-09T20:16:35.930Z,13.08
2024-05-09T20:19:39.564Z,12.99
2024-05-09T20:22:42.496Z,13.05
2024-05-09T20:25:45.588Z,12.95
2024-05-09T20:28:48.856Z,12.90
2024-05-09T20:31:52.264Z,12.89
2024-05-09T20:34:54.742Z,12.99
2024-05-09T20:37:57.352Z,13.00
2024-05-09T20:41:00.031Z,12.90
2024-05-09T20:44:05.757Z,12.81
2024-05-09T20:47:08.509Z,12.84
2024-05-09T20:50:20.358Z,12.84
2024-05-09T20:53:30.964Z,12.69
2024-05-09T20:56:33.434Z,12.69
2024-05-09T20:59:38.087Z,12.69
2024-05-09T21:02:42.724Z,12.68
2024-05-09T21:05:45.780Z,12.72
2024-05-09T21:08:48.577Z,12.56
2024-05-09T21:11:51.027Z,12.57
2024-05-09T21:14:54.308Z,12.63
2024-05-09T21:17:56.770Z,12.65
2024-05-09T21:20:59.224Z,12.63
2024-05-09T21:24:01.778Z,12.57
2024-05-09T21:27:04.361Z,12.49
2024-05-09T21:30:12.902Z,12.46
2024-05-09T21:33:20.946Z,12.40
2024-05-09T21:36:23.478Z,12.37
2024-05-09T21:39:25.966Z,12.42
2024-05-09T21:42:28.422Z,12.37
2024-05-09T21:45:30.822Z,12.37
2024-05-09T21:48:33.633Z,12.27
2024-05-09T21:51:36.166Z,12.16
2024-05-09T21:54:38.672Z,12.10
2024-05-09T21:57:41.144Z,12.10
2024-05-09T22:00:45.746Z,11.94
2024-05-09T22:03:48.742Z,11.90
2024-05-09T22:06:51.755Z,11.88
2024-05-09T22:09:54.247Z,11.74
2024-05-09T22:12:56.726Z,11.58
2024-05-09T22:15:59.304Z,11.32
2024-05-09T22:19:01.960Z,11.25
2024-05-09T22:22:05.024Z,10.95
2024-05-09T22:25:07.954Z,10.79
2024-05-09T22:28:10.482Z,10.79
2024-05-09T22:31:13.508Z,10.60
2024-05-09T22:34:16.103Z,10.55
2024-05-09T22:37:18.708Z,10.43
2024-05-09T22:40:29.465Z,10.51
2024-05-09T22:43:41.128Z,10.40
2024-05-09T22:46:43.651Z,10.31
2024-05-09T22:49:46.153Z,10.25
2024-05-09T22:52:48.653Z,10.26
2024-05-09T22:55:51.181Z,10.23
2024-05-09T22:58:53.687Z,10.19
2024-05-09T23:01:56.623Z,10.03
2024-05-09T23:04:59.197Z,10.16
2024-05-09T23:08:02.872Z,10.02
2024-05-09T23:11:05.887Z,10.01
2024-05-09T23:14:08.417Z,10.08
2024-05-09T23:17:10.879Z,9.90
2024-05-09T23:20:14.838Z,9.96
2024-05-09T23:23:17.501Z,9.82
2024-05-09T23:26:19.883Z,9.69
2024-05-09T23:29:22.338Z,9.82
2024-05-09T23:32:24.874Z,9.90
2024-05-09T23:35:27.324Z,9.98
2024-05-09T23:38:29.752Z,9.91
2024-05-09T23:41:32.180Z,9.96
2024-05-09T23:44:34.669Z,9.92
2024-05-09T23:47:37.330Z,9.80
2024-05-09T23:50:40.718Z,9.81
2024-05-09T23:53:47.137Z,9.63
2024-05-09T23:56:49.615Z,9.60
2024-05-09T23:59:52.125Z,9.58
